< < Back
Terminal Aerodrome Forecast


Current Version              Previous Versions:   1  2  3  4  5  6  7  8  9  

Terminal Aerodrome Forecast

908
FTUS42 KJAX 310522
TAFJAX
TAF
KJAX 310522Z 3106/0106 36004KT P6SM BKN250
     FM311500 06010G15KT P6SM FEW040 SCT150 BKN250
     FM010100 06002KT P6SM FEW020 SCT150 BKN250=



Latest METAR

368
SAUS80 KWBC 311300 CCA
MTRJAX
METAR KJAX 311256Z 36004KT 10SM BKN250 03/01 A3032 RMK AO2 SLP269
T00280011


USA.gov is the U.S. government's official web portal to all federal, state and local government web resources and services.